createdAt,value
2017-07-10T13:13:00.655Z,997.2
2017-07-10T13:17:15.894Z,997.3
2017-07-10T13:27:23.484Z,997.3
2017-07-10T13:37:31.057Z,997.4
2017-07-10T13:47:38.381Z,997.4
2017-07-10T13:57:45.213Z,997.3
2017-07-10T14:07:51.638Z,997.2
2017-07-10T14:17:57.869Z,997.1
2017-07-10T14:28:04.165Z,997
2017-07-10T14:38:10.668Z,996.9
2017-07-10T14:48:17.328Z,996.9
2017-07-10T14:58:24.032Z,996.8
2017-07-10T15:08:31.003Z,997
2017-07-10T15:18:37.767Z,996.8
2017-07-10T15:28:44.909Z,997
2017-07-10T15:38:52.457Z,996.9
2017-07-10T15:49:00.341Z,997.3
2017-07-10T15:59:07.995Z,997.1
2017-07-10T16:09:15.566Z,996.9
2017-07-10T16:19:23.050Z,996.9
2017-07-10T16:29:30.541Z,996.8
2017-07-10T16:39:38.360Z,996.6
2017-07-10T16:49:46.137Z,997
2017-07-10T16:50:20.760Z,997
2017-07-10T17:00:28.829Z,997.1
2017-07-10T17:10:37.127Z,997.4
2017-07-10T17:20:45.266Z,997.4
2017-07-10T17:30:53.241Z,997.5
2017-07-10T17:41:01.221Z,997.3
2017-07-10T17:51:09.258Z,997.2
2017-07-10T18:01:17.578Z,997.3
2017-07-10T18:11:26.098Z,997.3
2017-07-10T18:21:34.727Z,997.5
2017-07-10T18:31:43.325Z,997.5
2017-07-10T18:41:52.100Z,997.5
2017-07-10T18:52:00.962Z,997.5
2017-07-10T19:02:09.871Z,997.5
2017-07-10T19:12:18.725Z,997.4
2017-07-10T19:22:27.699Z,997.7
2017-07-10T19:32:36.527Z,998.2
2017-07-10T19:42:45.468Z,998.2
2017-07-10T19:52:54.491Z,998.7
2017-07-10T20:03:03.409Z,998.9
2017-07-10T20:13:12.467Z,998.8
2017-07-10T20:23:21.422Z,998.8
2017-07-10T20:33:30.448Z,999
2017-07-10T20:43:39.510Z,999
2017-07-10T20:53:48.582Z,999.2
2017-07-10T21:03:57.646Z,999.1
2017-07-10T21:14:06.711Z,999.1
2017-07-10T21:24:15.766Z,999
2017-07-10T21:34:24.884Z,998.9
2017-07-10T21:44:33.965Z,999.1
2017-07-10T21:54:43.031Z,999.1
2017-07-10T22:04:52.016Z,999.3
2017-07-10T22:15:01.013Z,999.3
2017-07-10T22:25:10.106Z,999.3
2017-07-10T22:35:19.221Z,999.2
2017-07-10T22:45:28.240Z,999.3
2017-07-10T22:55:37.419Z,999.3
2017-07-10T23:05:46.600Z,999.5
2017-07-10T23:15:56.034Z,999.7
2017-07-10T23:26:04.971Z,999.5
2017-07-10T23:36:14.259Z,999.4
2017-07-10T23:46:23.355Z,999.5
2017-07-10T23:56:32.596Z,999.5
